METAR AND TAF INFORMATION
METAR FOR GCHI
ADDS - METARS form results

(0713 UTC 17 October 2021)
Data provider http://aviationweather.gov/metar/data/
 
METAR text: GCHI 170700Z 35004KT 320V050 9999 BKN010 22/20 Q1016
Conditions at: GCHI (HIERRO AIRPORT , ES) observed 0700 UTC 17 October 2021
Temperature: 22.0°C (72°F)
Dewpoint: 20.0°C (68°F) [RH = 88%]
Pressure (altimeter): 30.00 inches Hg (1016.0 mb)
Winds: from the N (350 degrees) at 5 MPH (4 knots; 2.1 m/s)
Visibility: 6 or more miles (10+ km)
Ceiling: 1000 feet AGL
Clouds: broken clouds at 1000 feet AGL
Weather: no significant weather observed at this time

METAR text: GCHI 170639Z 33006KT 9999 BKN010 22/20 Q1016
Conditions at: GCHI (HIERRO AIRPORT , ES) observed 0639 UTC 17 October 2021
Temperature: 22.0°C (72°F)
Dewpoint: 20.0°C (68°F) [RH = 88%]
Pressure (altimeter): 30.00 inches Hg (1016.0 mb)
Winds: from the NNW (330 degrees) at 7 MPH (6 knots; 3.1 m/s)
Visibility: 6 or more miles (10+ km)
Ceiling: 1000 feet AGL
Clouds: broken clouds at 1000 feet AGL
Weather: no significant weather observed at this time

METAR text: GCHI 170630Z 34008KT 9999 SCT010 22/20 Q1016
Conditions at: GCHI (HIERRO AIRPORT , ES) observed 0630 UTC 17 October 2021
Temperature: 22.0°C (72°F)
Dewpoint: 20.0°C (68°F) [RH = 88%]
Pressure (altimeter): 30.00 inches Hg (1016.0 mb)
Winds: from the NNW (340 degrees) at 9 MPH (8 knots; 4.1 m/s)
Visibility: 6 or more miles (10+ km)
Ceiling: at least 12,000 feet AGL
Clouds: scattered clouds at 1000 feet AGL
Weather: no significant weather observed at this time

Forecast for: AMD
Text: TAF AMD GCHI 170654Z 1706/1803 13011KT CAVOK TX26/1714Z TN22/1706Z
Forecast period: 0600 to 1300 UTC 17 October 2021
Forecast type: FROM: standard forecast or significant change
Winds: from the SE (130 degrees) at 13 MPH (11 knots; 5.7 m/s)
Visibility: 6 or more miles (10+ km)
Ceiling: unknown
Clouds: missing
Weather: no significant weather forecast for this period
Text: BECMG 1713/1715 02005KT
Forecast period: 1300 UTC 17 October 2021 to 0300 UTC 18 October 2021
Forecast type: BECOMING: Conditions expected to become as follows by 1500 UTC 17 October 2021
Winds: from the NNE (20 degrees) at 6 MPH (5 knots; 2.6 m/s)
Visibility: 6 or more miles (10+ km)
Ceiling: unknown
Clouds: missing
Weather: no significant weather forecast for this period
Text: TEMPO 1707/1709 BKN010
Forecast period: 0700 to 0900 UTC 17 October 2021
Forecast type: TEMPORARY: The following changes expected for less than half the time period
Visibility: missing
Ceiling: 1000 feet AGL
Clouds: broken clouds at 1000 feet AGL
Weather: no significant weather forecast for this period

 AIRPORT MAP

 RUNWAY INFORMATION
Runway 16 Runway length 4101 ft Runway width 98 ft
Runway elevation 71 ft Runway displaced threshold 0 ft Runway heading 153
Runway 34 Runway length 4101 ft Runway width 98 ft
Runway elevation 103 ft Runway displaced threshold 0 ft Runway heading 333

 AIRPORT FREQUENCIES
Type A/D Name CANARIAS A Frequency 126.1 MHZ
Type GND Name GND Frequency 121.6 MHZ
Type TWR Name TWR Frequency 118.1 MHZ

 AIRPORT NEAR NAVIGATION AIDS
Type NDB Name Hierro Frequency 376 KHZ
Type DME Name Hierro Frequency 113200 KHZ





Powered by Virtual Airlines Manager

Maps by Rafael Santos